sensor_id;sensor_type;location;lat;lon;timestamp;pressure;altitude;pressure_sealevel;temperature;humidity
33422;BME280;19763;55.798;37.782;2023-01-25T00:02:13;147496.28;;;0.68;75.75
33422;BME280;19763;55.798;37.782;2023-01-25T00:04:38;147500.09;;;0.69;75.36
33422;BME280;19763;55.798;37.782;2023-01-25T00:07:04;147505.22;;;0.72;75.61
33422;BME280;19763;55.798;37.782;2023-01-25T00:09:29;147451.81;;;0.50;75.07
33422;BME280;19763;55.798;37.782;2023-01-25T00:11:55;147461.94;;;0.54;75.98
33422;BME280;19763;55.798;37.782;2023-01-25T00:14:22;147496.28;;;0.68;75.70
33422;BME280;19763;55.798;37.782;2023-01-25T00:16:48;147474.69;;;0.59;75.68
33422;BME280;19763;55.798;37.782;2023-01-25T00:19:14;147486.13;;;0.64;76.09
33422;BME280;19763;55.798;37.782;2023-01-25T00:21:39;147481.06;;;0.62;75.08
33422;BME280;19763;55.798;37.782;2023-01-25T00:24:05;147502.66;;;0.71;75.41
33422;BME280;19763;55.798;37.782;2023-01-25T00:26:34;147526.84;;;0.80;75.36
33422;BME280;19763;55.798;37.782;2023-01-25T00:29:00;147526.84;;;0.80;75.71
33422;BME280;19763;55.798;37.782;2023-01-25T00:36:50;147502.66;;;0.71;75.36
33422;BME280;19763;55.798;37.782;2023-01-25T00:39:16;147531.91;;;0.82;75.39
33422;BME280;19763;55.798;37.782;2023-01-25T00:41:42;147509.03;;;0.73;75.37
33422;BME280;19763;55.798;37.782;2023-01-25T00:44:08;147517.91;;;0.77;75.34
33422;BME280;19763;55.798;37.782;2023-01-25T00:46:34;147459.44;;;0.53;75.25
33422;BME280;19763;55.798;37.782;2023-01-25T00:49:00;147451.81;;;0.50;75.24
33422;BME280;19763;55.798;37.782;2023-01-25T00:51:25;147463.25;;;0.55;75.06
33422;BME280;19763;55.798;37.782;2023-01-25T00:53:51;147453.06;;;0.50;75.30
33422;BME280;19763;55.798;37.782;2023-01-25T00:56:17;147445.44;;;0.47;74.90
33422;BME280;19763;55.798;37.782;2023-01-25T00:58:42;147426.34;;;0.40;75.13
33422;BME280;19763;55.798;37.782;2023-01-25T01:01:09;147460.69;;;0.54;74.83
33422;BME280;19763;55.798;37.782;2023-01-25T01:03:34;147435.25;;;0.43;74.74
33422;BME280;19763;55.798;37.782;2023-01-25T01:06:03;147423.81;;;0.39;75.57
33422;BME280;19763;55.798;37.782;2023-01-25T01:08:31;147440.31;;;0.45;75.06
33422;BME280;19763;55.798;37.782;2023-01-25T01:10:59;147433.94;;;0.43;75.12
33422;BME280;19763;55.798;37.782;2023-01-25T01:13:26;147441.63;;;0.46;74.91
33422;BME280;19763;55.798;37.782;2023-01-25T01:15:51;147417.47;;;0.36;75.77
33422;BME280;19763;55.798;37.782;2023-01-25T01:18:17;147404.72;;;0.31;75.44
33422;BME280;19763;55.798;37.782;2023-01-25T01:20:50;147416.16;;;0.36;75.00
33422;BME280;19763;55.798;37.782;2023-01-25T01:23:17;147414.91;;;0.35;74.87
33422;BME280;19763;55.798;37.782;2023-01-25T01:25:43;147414.91;;;0.35;74.11
33422;BME280;19763;55.798;37.782;2023-01-25T01:28:08;147431.44;;;0.42;74.73
33422;BME280;19763;55.798;37.782;2023-01-25T01:30:35;147407.28;;;0.32;74.58
33422;BME280;19763;55.798;37.782;2023-01-25T01:33:00;147389.47;;;0.25;74.23
33422;BME280;19763;55.798;37.782;2023-01-25T01:35:28;147432.69;;;0.42;74.20
33422;BME280;19763;55.798;37.782;2023-01-25T01:37:53;147432.69;;;0.42;73.72
33422;BME280;19763;55.798;37.782;2023-01-25T01:40:19;147451.81;;;0.50;73.87
33422;BME280;19763;55.798;37.782;2023-01-25T01:43:05;147432.69;;;0.42;73.80
33422;BME280;19763;55.798;37.782;2023-01-25T01:45:50;147472.13;;;0.58;73.86
33422;BME280;19763;55.798;37.782;2023-01-25T01:53:46;147455.63;;;0.51;73.31
33422;BME280;19763;55.798;37.782;2023-01-25T01:56:17;147440.31;;;0.45;73.66
33422;BME280;19763;55.798;37.782;2023-01-25T01:58:45;147464.50;;;0.55;73.46
33422;BME280;19763;55.798;37.782;2023-01-25T02:01:11;147467.06;;;0.56;73.78
33422;BME280;19763;55.798;37.782;2023-01-25T02:03:38;147450.50;;;0.49;73.70
33422;BME280;19763;55.798;37.782;2023-01-25T02:06:12;147441.63;;;0.46;73.82
33422;BME280;19763;55.798;37.782;2023-01-25T02:08:39;147469.63;;;0.57;73.03
33422;BME280;19763;55.798;37.782;2023-01-25T02:11:06;147465.81;;;0.56;73.13
33422;BME280;19763;55.798;37.782;2023-01-25T02:13:33;147447.94;;;0.48;73.71
33422;BME280;19763;55.798;37.782;2023-01-25T02:15:59;147450.50;;;0.49;73.93
33422;BME280;19763;55.798;37.782;2023-01-25T02:18:25;147427.63;;;0.40;73.58
33422;BME280;19763;55.798;37.782;2023-01-25T02:20:52;147441.63;;;0.46;73.29
33422;BME280;19763;55.798;37.782;2023-01-25T02:26:05;147423.81;;;0.39;72.55
33422;BME280;19763;55.798;37.782;2023-01-25T02:28:42;147444.13;;;0.47;72.40
33422;BME280;19763;55.798;37.782;2023-01-25T02:31:09;147469.63;;;0.57;72.48
33422;BME280;19763;55.798;37.782;2023-01-25T02:33:35;147493.75;;;0.67;72.55
33422;BME280;19763;55.798;37.782;2023-01-25T02:38:41;147501.41;;;0.70;73.02
33422;BME280;19763;55.798;37.782;2023-01-25T02:41:17;147478.50;;;0.61;73.17
33422;BME280;19763;55.798;37.782;2023-01-25T02:43:45;147512.84;;;0.75;72.70
33422;BME280;19763;55.798;37.782;2023-01-25T02:46:27;147482.31;;;0.62;72.59
33422;BME280;19763;55.798;37.782;2023-01-25T02:48:54;147463.25;;;0.55;74.27
33422;BME280;19763;55.798;37.782;2023-01-25T02:51:22;147470.88;;;0.58;73.66
33422;BME280;19763;55.798;37.782;2023-01-25T02:53:48;147479.75;;;0.61;73.29
33422;BME280;19763;55.798;37.782;2023-01-25T02:56:14;147478.50;;;0.61;72.81
33422;BME280;19763;55.798;37.782;2023-01-25T02:58:39;147445.44;;;0.47;72.60
33422;BME280;19763;55.798;37.782;2023-01-25T03:01:05;147470.88;;;0.58;72.75
33422;BME280;19763;55.798;37.782;2023-01-25T03:03:30;147477.25;;;0.60;72.89
33422;BME280;19763;55.798;37.782;2023-01-25T03:05:56;147498.84;;;0.69;72.31
33422;BME280;19763;55.798;37.782;2023-01-25T03:08:22;147488.69;;;0.65;72.70
33422;BME280;19763;55.798;37.782;2023-01-25T03:10:47;147498.84;;;0.69;73.22
33422;BME280;19763;55.798;37.782;2023-01-25T03:13:13;147487.41;;;0.64;72.56
33422;BME280;19763;55.798;37.782;2023-01-25T03:15:38;147470.88;;;0.58;72.54
33422;BME280;19763;55.798;37.782;2023-01-25T03:18:04;147488.69;;;0.65;72.67
33422;BME280;19763;55.798;37.782;2023-01-25T03:20:29;147493.75;;;0.67;73.40
33422;BME280;19763;55.798;37.782;2023-01-25T03:22:55;147503.91;;;0.71;73.11
33422;BME280;19763;55.798;37.782;2023-01-25T03:25:20;147496.28;;;0.68;72.78
33422;BME280;19763;55.798;37.782;2023-01-25T03:27:46;147523.03;;;0.79;72.41
33422;BME280;19763;55.798;37.782;2023-01-25T03:30:12;147540.84;;;0.86;73.00
33422;BME280;19763;55.798;37.782;2023-01-25T03:32:38;147501.41;;;0.70;73.24
33422;BME280;19763;55.798;37.782;2023-01-25T03:35:04;147497.59;;;0.68;73.45
33422;BME280;19763;55.798;37.782;2023-01-25T03:37:30;147492.50;;;0.66;72.82
33422;BME280;19763;55.798;37.782;2023-01-25T03:39:59;147473.44;;;0.59;72.93
33422;BME280;19763;55.798;37.782;2023-01-25T03:42:24;147468.31;;;0.57;72.58
33422;BME280;19763;55.798;37.782;2023-01-25T03:44:50;147463.25;;;0.55;73.53
33422;BME280;19763;55.798;37.782;2023-01-25T03:47:15;147495.03;;;0.67;73.50
33422;BME280;19763;55.798;37.782;2023-01-25T03:49:41;147489.94;;;0.65;73.30
33422;BME280;19763;55.798;37.782;2023-01-25T03:52:07;147514.09;;;0.75;73.11
33422;BME280;19763;55.798;37.782;2023-01-25T03:54:32;147497.59;;;0.68;73.56
33422;BME280;19763;55.798;37.782;2023-01-25T03:56:58;147447.94;;;0.48;74.24
33422;BME280;19763;55.798;37.782;2023-01-25T03:59:24;147441.63;;;0.46;73.85
33422;BME280;19763;55.798;37.782;2023-01-25T04:01:49;147468.31;;;0.57;74.56
33422;BME280;19763;55.798;37.782;2023-01-25T04:04:15;147465.81;;;0.56;74.43
33422;BME280;19763;55.798;37.782;2023-01-25T04:06:41;147430.16;;;0.41;74.30
33422;BME280;19763;55.798;37.782;2023-01-25T04:09:07;147450.50;;;0.49;74.44
33422;BME280;19763;55.798;37.782;2023-01-25T04:11:32;147425.06;;;0.39;75.60
33422;BME280;19763;55.798;37.782;2023-01-25T04:13:58;147426.34;;;0.40;75.87
33422;BME280;19763;55.798;37.782;2023-01-25T04:16:23;147432.69;;;0.42;75.34
33422;BME280;19763;55.798;37.782;2023-01-25T04:18:49;147418.72;;;0.37;75.81
33422;BME280;19763;55.798;37.782;2023-01-25T04:21:15;147430.16;;;0.41;75.26
33422;BME280;19763;55.798;37.782;2023-01-25T04:23:40;147385.66;;;0.23;76.22
33422;BME280;19763;55.798;37.782;2023-01-25T04:26:13;147435.25;;;0.43;75.73
33422;BME280;19763;55.798;37.782;2023-01-25T04:28:39;147455.63;;;0.51;75.56
33422;BME280;19763;55.798;37.782;2023-01-25T04:31:05;147475.94;;;0.60;75.63
33422;BME280;19763;55.798;37.782;2023-01-25T04:33:32;147444.13;;;0.47;75.59
33422;BME280;19763;55.798;37.782;2023-01-25T04:35:58;147479.75;;;0.61;75.40
33422;BME280;19763;55.798;37.782;2023-01-25T04:38:24;147473.44;;;0.59;76.18
33422;BME280;19763;55.798;37.782;2023-01-25T04:40:50;147470.88;;;0.58;75.79
33422;BME280;19763;55.798;37.782;2023-01-25T04:43:17;147467.06;;;0.56;76.13
33422;BME280;19763;55.798;37.782;2023-01-25T04:45:44;147439.06;;;0.45;75.95
33422;BME280;19763;55.798;37.782;2023-01-25T04:48:11;147465.81;;;0.56;76.04
33422;BME280;19763;55.798;37.782;2023-01-25T04:50:41;147497.59;;;0.68;75.65
33422;BME280;19763;55.798;37.782;2023-01-25T04:53:08;147478.50;;;0.61;75.84
33422;BME280;19763;55.798;37.782;2023-01-25T04:55:34;147489.94;;;0.65;76.32
33422;BME280;19763;55.798;37.782;2023-01-25T04:58:00;147479.75;;;0.61;76.40
33422;BME280;19763;55.798;37.782;2023-01-25T05:00:26;147461.94;;;0.54;76.43
33422;BME280;19763;55.798;37.782;2023-01-25T05:02:53;147492.50;;;0.66;76.11
33422;BME280;19763;55.798;37.782;2023-01-25T05:05:19;147512.84;;;0.75;75.72
33422;BME280;19763;55.798;37.782;2023-01-25T05:07:44;147491.22;;;0.66;75.97
33422;BME280;19763;55.798;37.782;2023-01-25T05:10:10;147497.59;;;0.68;75.96
33422;BME280;19763;55.798;37.782;2023-01-25T05:12:36;147454.31;;;0.51;75.97
33422;BME280;19763;55.798;37.782;2023-01-25T05:15:02;147474.69;;;0.59;75.82
33422;BME280;19763;55.798;37.782;2023-01-25T05:17:29;147464.50;;;0.55;75.61
33422;BME280;19763;55.798;37.782;2023-01-25T05:19:54;147482.31;;;0.62;75.75
33422;BME280;19763;55.798;37.782;2023-01-25T05:22:20;147468.31;;;0.57;75.65
33422;BME280;19763;55.798;37.782;2023-01-25T05:24:46;147454.31;;;0.51;75.27
33422;BME280;19763;55.798;37.782;2023-01-25T05:27:15;147483.59;;;0.63;75.35
33422;BME280;19763;55.798;37.782;2023-01-25T05:29:42;147491.22;;;0.66;74.98
33422;BME280;19763;55.798;37.782;2023-01-25T05:32:10;147525.59;;;0.80;74.76
33422;BME280;19763;55.798;37.782;2023-01-25T05:34:37;147537.03;;;0.84;74.19
33422;BME280;19763;55.798;37.782;2023-01-25T05:37:04;147539.53;;;0.85;74.33
33422;BME280;19763;55.798;37.782;2023-01-25T05:39:30;147511.59;;;0.74;75.04
33422;BME280;19763;55.798;37.782;2023-01-25T05:41:56;147497.59;;;0.68;74.64
33422;BME280;19763;55.798;37.782;2023-01-25T05:44:22;147488.69;;;0.65;74.84
33422;BME280;19763;55.798;37.782;2023-01-25T05:46:47;147470.88;;;0.58;74.94
33422;BME280;19763;55.798;37.782;2023-01-25T05:49:13;147498.84;;;0.69;74.63
33422;BME280;19763;55.798;37.782;2023-01-25T05:51:39;147425.06;;;0.39;74.38
33422;BME280;19763;55.798;37.782;2023-01-25T05:54:05;147463.25;;;0.55;74.66
33422;BME280;19763;55.798;37.782;2023-01-25T05:56:32;147463.25;;;0.55;74.71
33422;BME280;19763;55.798;37.782;2023-01-25T05:58:59;147465.81;;;0.56;75.07
33422;BME280;19763;55.798;37.782;2023-01-25T06:01:25;147474.69;;;0.59;75.34
33422;BME280;19763;55.798;37.782;2023-01-25T06:03:52;147481.06;;;0.62;74.88
33422;BME280;19763;55.798;37.782;2023-01-25T06:06:18;147475.94;;;0.60;75.35
33422;BME280;19763;55.798;37.782;2023-01-25T06:08:44;147492.50;;;0.66;74.67
33422;BME280;19763;55.798;37.782;2023-01-25T06:11:12;147442.88;;;0.46;74.64
33422;BME280;19763;55.798;37.782;2023-01-25T06:13:38;147491.22;;;0.66;74.53
33422;BME280;19763;55.798;37.782;2023-01-25T06:16:05;147509.03;;;0.73;74.91
33422;BME280;19763;55.798;37.782;2023-01-25T06:18:32;147495.03;;;0.67;74.99
33422;BME280;19763;55.798;37.782;2023-01-25T06:20:58;147473.44;;;0.59;75.27
33422;BME280;19763;55.798;37.782;2023-01-25T06:23:24;147491.22;;;0.66;74.91
33422;BME280;19763;55.798;37.782;2023-01-25T06:25:50;147478.50;;;0.61;74.73
33422;BME280;19763;55.798;37.782;2023-01-25T06:28:18;147463.25;;;0.55;75.17
33422;BME280;19763;55.798;37.782;2023-01-25T06:30:44;147470.88;;;0.58;75.00
33422;BME280;19763;55.798;37.782;2023-01-25T06:33:09;147474.69;;;0.59;74.66
33422;BME280;19763;55.798;37.782;2023-01-25T06:35:35;147435.25;;;0.43;74.35
33422;BME280;19763;55.798;37.782;2023-01-25T06:38:01;147441.63;;;0.46;74.28
33422;BME280;19763;55.798;37.782;2023-01-25T06:40:27;147439.06;;;0.45;74.80
33422;BME280;19763;55.798;37.782;2023-01-25T06:42:53;147469.63;;;0.57;75.03
33422;BME280;19763;55.798;37.782;2023-01-25T06:45:19;147492.50;;;0.66;74.20
33422;BME280;19763;55.798;37.782;2023-01-25T06:47:47;147445.44;;;0.47;74.22
33422;BME280;19763;55.798;37.782;2023-01-25T06:50:13;147447.94;;;0.48;74.60
33422;BME280;19763;55.798;37.782;2023-01-25T06:52:39;147460.69;;;0.54;74.71
33422;BME280;19763;55.798;37.782;2023-01-25T06:55:05;147482.31;;;0.62;74.53
33422;BME280;19763;55.798;37.782;2023-01-25T06:57:33;147464.50;;;0.55;74.72
33422;BME280;19763;55.798;37.782;2023-01-25T06:59:59;147414.91;;;0.35;74.38
33422;BME280;19763;55.798;37.782;2023-01-25T07:02:24;147422.53;;;0.38;75.84
33422;BME280;19763;55.798;37.782;2023-01-25T07:04:50;147431.44;;;0.42;75.18
33422;BME280;19763;55.798;37.782;2023-01-25T07:07:16;147412.34;;;0.34;74.85
33422;BME280;19763;55.798;37.782;2023-01-25T07:09:41;147441.63;;;0.46;74.49
33422;BME280;19763;55.798;37.782;2023-01-25T07:12:07;147416.16;;;0.36;75.98
33422;BME280;19763;55.798;37.782;2023-01-25T07:14:32;147431.44;;;0.42;75.45
33422;BME280;19763;55.798;37.782;2023-01-25T07:16:58;147435.25;;;0.43;74.93
33422;BME280;19763;55.798;37.782;2023-01-25T07:19:24;147437.81;;;0.44;74.28
33422;BME280;19763;55.798;37.782;2023-01-25T07:21:50;147445.44;;;0.47;75.02
33422;BME280;19763;55.798;37.782;2023-01-25T07:24:18;147454.31;;;0.51;74.24
33422;BME280;19763;55.798;37.782;2023-01-25T07:26:45;147402.16;;;0.30;74.51
33422;BME280;19763;55.798;37.782;2023-01-25T07:29:14;147416.16;;;0.36;74.24
33422;BME280;19763;55.798;37.782;2023-01-25T07:31:39;147432.69;;;0.42;74.45
33422;BME280;19763;55.798;37.782;2023-01-25T07:34:12;147489.94;;;0.65;74.66
33422;BME280;19763;55.798;37.782;2023-01-25T07:36:38;147463.25;;;0.55;73.97
33422;BME280;19763;55.798;37.782;2023-01-25T07:39:05;147442.88;;;0.46;74.67
33422;BME280;19763;55.798;37.782;2023-01-25T07:41:31;147455.63;;;0.51;74.51
33422;BME280;19763;55.798;37.782;2023-01-25T07:43:59;147427.63;;;0.40;74.43
33422;BME280;19763;55.798;37.782;2023-01-25T07:46:24;147450.50;;;0.49;74.27
33422;BME280;19763;55.798;37.782;2023-01-25T07:48:51;147474.69;;;0.59;74.90
33422;BME280;19763;55.798;37.782;2023-01-25T07:51:18;147468.31;;;0.57;73.95
33422;BME280;19763;55.798;37.782;2023-01-25T07:54:00;147459.44;;;0.53;74.18
33422;BME280;19763;55.798;37.782;2023-01-25T07:56:32;147495.03;;;0.67;74.47
33422;BME280;19763;55.798;37.782;2023-01-25T07:58:58;147538.28;;;0.85;73.51
33422;BME280;19763;55.798;37.782;2023-01-25T08:01:26;147530.66;;;0.82;73.83
33422;BME280;19763;55.798;37.782;2023-01-25T08:03:53;147524.28;;;0.79;73.46
33422;BME280;19763;55.798;37.782;2023-01-25T08:06:25;147487.41;;;0.64;73.83
33422;BME280;19763;55.798;37.782;2023-01-25T08:08:56;147487.41;;;0.64;73.67
33422;BME280;19763;55.798;37.782;2023-01-25T08:11:25;147495.03;;;0.67;74.40
33422;BME280;19763;55.798;37.782;2023-01-25T08:13:51;147505.22;;;0.72;73.96
33422;BME280;19763;55.798;37.782;2023-01-25T08:16:22;147500.09;;;0.69;74.46
33422;BME280;19763;55.798;37.782;2023-01-25T08:18:51;147539.53;;;0.85;73.97
33422;BME280;19763;55.798;37.782;2023-01-25T08:21:18;147537.03;;;0.84;73.71
33422;BME280;19763;55.798;37.782;2023-01-25T08:23:43;147565.03;;;0.96;73.83
33422;BME280;19763;55.798;37.782;2023-01-25T08:26:11;147571.41;;;0.98;73.79
33422;BME280;19763;55.798;37.782;2023-01-25T08:28:36;147554.84;;;0.92;74.14
33422;BME280;19763;55.798;37.782;2023-01-25T08:31:10;147511.59;;;0.74;74.16
33422;BME280;19763;55.798;37.782;2023-01-25T08:33:37;147500.09;;;0.69;74.32
33422;BME280;19763;55.798;37.782;2023-01-25T08:36:04;147469.63;;;0.57;74.94
33422;BME280;19763;55.798;37.782;2023-01-25T08:38:30;147514.09;;;0.75;74.71
33422;BME280;19763;55.798;37.782;2023-01-25T08:41:04;147484.88;;;0.63;74.08
33422;BME280;19763;55.798;37.782;2023-01-25T08:43:30;147507.72;;;0.73;74.58
33422;BME280;19763;55.798;37.782;2023-01-25T08:45:56;147521.72;;;0.78;74.33
33422;BME280;19763;55.798;37.782;2023-01-25T08:48:22;147554.84;;;0.92;74.26
33422;BME280;19763;55.798;37.782;2023-01-25T08:50:47;147585.34;;;1.04;73.84
33422;BME280;19763;55.798;37.782;2023-01-25T08:53:13;147542.09;;;0.86;74.25
33422;BME280;19763;55.798;37.782;2023-01-25T08:55:39;147572.66;;;0.99;73.82
33422;BME280;19763;55.798;37.782;2023-01-25T08:58:09;147582.84;;;1.03;74.04
33422;BME280;19763;55.798;37.782;2023-01-25T09:00:37;147566.28;;;0.96;73.57
33422;BME280;19763;55.798;37.782;2023-01-25T09:03:03;147596.84;;;1.09;73.47
33422;BME280;19763;55.798;37.782;2023-01-25T09:05:28;147591.72;;;1.07;74.03
33422;BME280;19763;55.798;37.782;2023-01-25T09:07:54;147617.22;;;1.17;73.67
33422;BME280;19763;55.798;37.782;2023-01-25T09:10:19;147605.72;;;1.12;73.60
33422;BME280;19763;55.798;37.782;2023-01-25T09:12:45;147626.09;;;1.20;73.87
33422;BME280;19763;55.798;37.782;2023-01-25T09:15:10;147624.84;;;1.20;73.33
33422;BME280;19763;55.798;37.782;2023-01-25T09:17:36;147631.16;;;1.23;73.78
33422;BME280;19763;55.798;37.782;2023-01-25T09:20:06;147565.03;;;0.96;73.58
33422;BME280;19763;55.798;37.782;2023-01-25T09:22:31;147582.84;;;1.03;74.15
33422;BME280;19763;55.798;37.782;2023-01-25T09:24:57;147545.91;;;0.88;74.66
33422;BME280;19763;55.798;37.782;2023-01-25T09:27:22;147565.03;;;0.96;74.73
33422;BME280;19763;55.798;37.782;2023-01-25T09:29:48;147524.28;;;0.79;75.25
33422;BME280;19763;55.798;37.782;2023-01-25T09:32:13;147506.47;;;0.72;74.94
33422;BME280;19763;55.798;37.782;2023-01-25T09:34:39;147528.09;;;0.81;75.54
33422;BME280;19763;55.798;37.782;2023-01-25T09:37:05;147572.66;;;0.99;75.68
33422;BME280;19763;55.798;37.782;2023-01-25T09:39:31;147581.53;;;1.02;75.31
33422;BME280;19763;55.798;37.782;2023-01-25T09:50:34;147535.72;;;0.84;75.48
33422;BME280;19763;55.798;37.782;2023-01-25T09:55:39;147516.66;;;0.76;75.45
33422;BME280;19763;55.798;37.782;2023-01-25T09:58:11;147478.50;;;0.61;75.96
33422;BME280;19763;55.798;37.782;2023-01-25T10:00:43;147501.41;;;0.70;75.73
33422;BME280;19763;55.798;37.782;2023-01-25T10:03:35;147506.47;;;0.72;75.82
33422;BME280;19763;55.798;37.782;2023-01-25T10:06:02;147559.91;;;0.94;76.18
33422;BME280;19763;55.798;37.782;2023-01-25T10:11:13;147548.47;;;0.89;76.02
33422;BME280;19763;55.798;37.782;2023-01-25T10:13:42;147540.84;;;0.86;76.76
33422;BME280;19763;55.798;37.782;2023-01-25T10:21:47;147544.66;;;0.88;75.74
33422;BME280;19763;55.798;37.782;2023-01-25T10:30:48;147549.72;;;0.90;76.09
33422;BME280;19763;55.798;37.782;2023-01-25T10:33:18;147497.59;;;0.68;74.87
33422;BME280;19763;55.798;37.782;2023-01-25T10:35:46;147506.47;;;0.72;75.42
33422;BME280;19763;55.798;37.782;2023-01-25T10:38:38;147489.94;;;0.65;75.70
33422;BME280;19763;55.798;37.782;2023-01-25T10:43:39;147539.53;;;0.85;75.67
33422;BME280;19763;55.798;37.782;2023-01-25T10:46:31;147538.28;;;0.85;75.31
33422;BME280;19763;55.798;37.782;2023-01-25T10:49:05;147470.88;;;0.58;76.22
33422;BME280;19763;55.798;37.782;2023-01-25T10:51:38;147517.91;;;0.77;76.19
33422;BME280;19763;55.798;37.782;2023-01-25T10:54:05;147529.41;;;0.81;75.79
33422;BME280;19763;55.798;37.782;2023-01-25T10:56:34;147455.63;;;0.51;76.49
33422;BME280;19763;55.798;37.782;2023-01-25T10:59:32;147479.75;;;0.61;77.03
33422;BME280;19763;55.798;37.782;2023-01-25T11:07:46;147486.13;;;0.64;76.76
33422;BME280;19763;55.798;37.782;2023-01-25T11:10:41;147503.91;;;0.71;76.95
33422;BME280;19763;55.798;37.782;2023-01-25T11:15:40;147463.25;;;0.55;78.07
33422;BME280;19763;55.798;37.782;2023-01-25T11:18:32;147473.44;;;0.59;76.95
33422;BME280;19763;55.798;37.782;2023-01-25T11:23:35;147493.75;;;0.67;76.62
33422;BME280;19763;55.798;37.782;2023-01-25T11:26:16;147496.28;;;0.68;76.48
33422;BME280;19763;55.798;37.782;2023-01-25T11:28:43;147505.22;;;0.72;77.02
33422;BME280;19763;55.798;37.782;2023-01-25T11:31:13;147496.28;;;0.68;76.46
33422;BME280;19763;55.798;37.782;2023-01-25T11:33:40;147484.88;;;0.63;76.21
33422;BME280;19763;55.798;37.782;2023-01-25T11:36:12;147493.75;;;0.67;76.20
33422;BME280;19763;55.798;37.782;2023-01-25T11:39:27;147453.06;;;0.50;75.87
33422;BME280;19763;55.798;37.782;2023-01-25T11:47:43;147469.63;;;0.57;76.56
33422;BME280;19763;55.798;37.782;2023-01-25T11:50:32;147445.44;;;0.47;77.04
33422;BME280;19763;55.798;37.782;2023-01-25T11:56:07;147469.63;;;0.57;76.00
33422;BME280;19763;55.798;37.782;2023-01-25T11:58:41;147481.06;;;0.62;76.07
33422;BME280;19763;55.798;37.782;2023-01-25T12:03:58;147468.31;;;0.57;74.95
33422;BME280;19763;55.798;37.782;2023-01-25T12:09:25;147421.25;;;0.38;75.07
33422;BME280;19763;55.798;37.782;2023-01-25T12:12:09;147432.69;;;0.42;75.34
33422;BME280;19763;55.798;37.782;2023-01-25T12:17:31;147469.63;;;0.57;74.85
33422;BME280;19763;55.798;37.782;2023-01-25T12:28:33;147409.84;;;0.33;73.30
33422;BME280;19763;55.798;37.782;2023-01-25T12:31:06;147392.03;;;0.26;73.93
33422;BME280;19763;55.798;37.782;2023-01-25T12:33:42;147338.59;;;0.04;73.33
33422;BME280;19763;55.798;37.782;2023-01-25T12:36:15;147390.72;;;0.25;73.06
33422;BME280;19763;55.798;37.782;2023-01-25T12:41:32;147392.03;;;0.26;72.67
33422;BME280;19763;55.798;37.782;2023-01-25T12:44:23;147338.59;;;0.04;73.17
33422;BME280;19763;55.798;37.782;2023-01-25T12:47:14;147399.66;;;0.29;73.43
33422;BME280;19763;55.798;37.782;2023-01-25T12:54:45;147428.88;;;0.41;72.56
33422;BME280;19763;55.798;37.782;2023-01-25T12:57:24;147329.72;;;0.01;73.21
33422;BME280;19763;55.798;37.782;2023-01-25T13:11:30;147413.66;;;0.34;72.91
33422;BME280;19763;55.798;37.782;2023-01-25T13:16:43;147392.03;;;0.26;72.84
33422;BME280;19763;55.798;37.782;2023-01-25T13:21:53;147418.72;;;0.37;73.04
33422;BME280;19763;55.798;37.782;2023-01-25T13:24:24;147411.09;;;0.33;73.20
33422;BME280;19763;55.798;37.782;2023-01-25T13:31:56;147402.16;;;0.30;73.26
33422;BME280;19763;55.798;37.782;2023-01-25T13:37:27;147399.66;;;0.29;73.51
33422;BME280;19763;55.798;37.782;2023-01-25T13:42:58;147411.09;;;0.33;73.67
33422;BME280;19763;55.798;37.782;2023-01-25T13:45:25;147393.28;;;0.26;73.65
33422;BME280;19763;55.798;37.782;2023-01-25T13:48:17;147379.28;;;0.21;73.49
33422;BME280;19763;55.798;37.782;2023-01-25T13:51:04;147358.94;;;0.12;74.14
33422;BME280;19763;55.798;37.782;2023-01-25T13:53:32;147384.38;;;0.23;74.72
33422;BME280;19763;55.798;37.782;2023-01-25T13:56:00;147390.72;;;0.25;74.17
33422;BME280;19763;55.798;37.782;2023-01-25T13:58:34;147319.53;;;-0.04;76.10
33422;BME280;19763;55.798;37.782;2023-01-25T14:01:13;147280.13;;;-0.20;75.48
33422;BME280;19763;55.798;37.782;2023-01-25T14:03:44;147366.56;;;0.15;75.70
33422;BME280;19763;55.798;37.782;2023-01-25T14:06:23;147300.50;;;-0.11;76.14
33422;BME280;19763;55.798;37.782;2023-01-25T14:08:50;147407.28;;;0.32;75.89
33422;BME280;19763;55.798;37.782;2023-01-25T14:11:26;147408.53;;;0.32;75.01
33422;BME280;19763;55.798;37.782;2023-01-25T14:16:43;147376.75;;;0.20;75.54
33422;BME280;19763;55.798;37.782;2023-01-25T14:19:38;147394.53;;;0.27;75.46
33422;BME280;19763;55.798;37.782;2023-01-25T14:22:25;147351.31;;;0.09;75.11
33422;BME280;19763;55.798;37.782;2023-01-25T14:25:15;147364.06;;;0.14;75.94
33422;BME280;19763;55.798;37.782;2023-01-25T14:27:47;147408.53;;;0.32;75.06
33422;BME280;19763;55.798;37.782;2023-01-25T14:32:56;147435.25;;;0.43;75.09
33422;BME280;19763;55.798;37.782;2023-01-25T14:37:55;147403.47;;;0.30;76.03
33422;BME280;19763;55.798;37.782;2023-01-25T14:40:22;147402.16;;;0.30;75.06
33422;BME280;19763;55.798;37.782;2023-01-25T14:42:49;147383.09;;;0.22;75.50
33422;BME280;19763;55.798;37.782;2023-01-25T14:45:16;147386.91;;;0.24;76.21
33422;BME280;19763;55.798;37.782;2023-01-25T14:47:41;147383.09;;;0.22;76.04
33422;BME280;19763;55.798;37.782;2023-01-25T14:50:30;147356.38;;;0.11;76.09
33422;BME280;19763;55.798;37.782;2023-01-25T14:52:56;147379.28;;;0.21;76.93
33422;BME280;19763;55.798;37.782;2023-01-25T14:55:23;147367.88;;;0.16;76.65
33422;BME280;19763;55.798;37.782;2023-01-25T14:57:49;147384.38;;;0.23;76.06
33422;BME280;19763;55.798;37.782;2023-01-25T15:00:20;147328.47;;;0.00;76.49
33422;BME280;19763;55.798;37.782;2023-01-25T15:02:50;147409.84;;;0.33;76.23
33422;BME280;19763;55.798;37.782;2023-01-25T15:07:53;147397.09;;;0.28;76.45